createdAt,value
2023-03-03T00:00:55.875Z,11.32
2023-03-03T00:03:24.736Z,10.13
2023-03-03T00:05:52.547Z,10.30
2023-03-03T00:08:20.614Z,12.20
2023-03-03T00:10:47.610Z,9.73
2023-03-03T00:13:20.082Z,11.30
2023-03-03T00:15:47.420Z,10.93
2023-03-03T00:18:35.269Z,11.55
2023-03-03T00:21:03.905Z,10.60
2023-03-03T00:23:30.724Z,11.50
2023-03-03T00:25:58.246Z,10.45
2023-03-03T00:28:40.969Z,10.70
2023-03-03T00:31:17.213Z,11.00
2023-03-03T00:33:50.584Z,12.05
2023-03-03T00:36:21.269Z,10.82
2023-03-03T00:38:49.253Z,11.48
2023-03-03T00:41:37.426Z,10.82
2023-03-03T00:44:23.993Z,12.05
2023-03-03T00:46:50.676Z,10.77
2023-03-03T00:49:26.496Z,11.32
2023-03-03T00:51:54.313Z,11.38
2023-03-03T00:54:21.088Z,11.27
2023-03-03T00:56:47.714Z,11.82
2023-03-03T00:59:14.690Z,12.70
2023-03-03T01:01:41.388Z,12.38
2023-03-03T01:04:08.621Z,14.40
2023-03-03T01:06:35.768Z,13.93
2023-03-03T01:09:02.534Z,12.20
2023-03-03T01:11:29.372Z,12.05
2023-03-03T01:13:56.716Z,12.27
2023-03-03T01:16:23.448Z,12.52
2023-03-03T01:18:50.670Z,12.40
2023-03-03T01:21:17.383Z,13.18
2023-03-03T01:23:44.092Z,13.20
2023-03-03T01:26:10.946Z,13.90
2023-03-03T01:28:38.892Z,16.20
2023-03-03T01:31:06.285Z,17.88
2023-03-03T01:33:35.331Z,16.98
2023-03-03T01:36:02.724Z,17.27
2023-03-03T01:38:29.762Z,17.42
2023-03-03T01:40:59.384Z,17.60
2023-03-03T01:43:31.113Z,16.20
2023-03-03T01:45:57.859Z,16.38
2023-03-03T01:48:36.519Z,17.15
2023-03-03T01:51:17.442Z,16.60
2023-03-03T01:53:51.503Z,17.88
2023-03-03T01:56:18.554Z,18.05
2023-03-03T01:59:01.388Z,16.90
2023-03-03T02:01:29.795Z,17.35
2023-03-03T02:03:59.086Z,19.08
2023-03-03T02:06:32.226Z,18.77
2023-03-03T02:09:09.663Z,18.23
2023-03-03T02:11:40.342Z,18.20
2023-03-03T02:14:07.150Z,18.10
2023-03-03T02:16:34.020Z,19.60
2023-03-03T02:19:00.886Z,20.20
2023-03-03T02:21:29.390Z,21.00
2023-03-03T02:24:03.285Z,23.83
2023-03-03T02:26:35.700Z,23.50
2023-03-03T02:29:07.123Z,23.65
2023-03-03T02:31:34.002Z,22.23
2023-03-03T02:34:01.207Z,21.52
2023-03-03T02:36:32.722Z,19.75
2023-03-03T02:39:08.904Z,19.15
2023-03-03T02:41:54.056Z,19.75
2023-03-03T02:44:24.919Z,17.10
2023-03-03T02:46:52.893Z,21.73
2023-03-03T02:49:23.372Z,20.73
2023-03-03T02:51:50.909Z,19.77
2023-03-03T02:54:20.589Z,18.25
2023-03-03T02:56:47.490Z,19.92
2023-03-03T02:59:14.784Z,19.80
2023-03-03T03:01:46.985Z,20.90
2023-03-03T03:04:19.603Z,19.30
2023-03-03T03:06:49.820Z,17.98
2023-03-03T03:09:19.161Z,18.40
2023-03-03T03:11:47.520Z,19.05
2023-03-03T03:14:16.903Z,17.45
2023-03-03T03:16:44.215Z,19.20
2023-03-03T03:19:11.100Z,17.77
2023-03-03T03:21:38.826Z,19.98
2023-03-03T03:24:07.418Z,19.80
2023-03-03T03:26:36.949Z,20.27
2023-03-03T03:29:03.684Z,20.17
2023-03-03T03:31:31.217Z,17.50
2023-03-03T03:33:58.000Z,18.67
2023-03-03T03:36:24.848Z,18.95
2023-03-03T03:38:52.395Z,17.60
2023-03-03T03:41:19.189Z,19.45
2023-03-03T03:43:46.270Z,20.30
2023-03-03T03:46:14.584Z,19.33
2023-03-03T03:48:41.350Z,19.60
2023-03-03T03:51:12.208Z,19.30
2023-03-03T03:53:39.945Z,19.80
2023-03-03T03:56:07.080Z,20.20
2023-03-03T03:58:33.902Z,19.98
2023-03-03T04:01:06.436Z,22.02
2023-03-03T04:03:35.949Z,18.63
2023-03-03T04:06:06.184Z,19.90
2023-03-03T04:08:33.975Z,20.55
2023-03-03T04:11:01.474Z,17.98
2023-03-03T04:13:31.816Z,19.73
2023-03-03T04:15:59.631Z,19.48
2023-03-03T04:18:26.747Z,18.67
2023-03-03T04:20:54.633Z,19.90
2023-03-03T04:23:21.791Z,17.13
2023-03-03T04:25:49.751Z,18.45
2023-03-03T04:28:17.980Z,18.52
2023-03-03T04:30:45.772Z,19.85
2023-03-03T04:33:14.998Z,20.00
2023-03-03T04:35:41.728Z,18.02
2023-03-03T04:38:08.460Z,21.27
2023-03-03T04:40:36.166Z,19.52
2023-03-03T04:43:04.190Z,22.23
2023-03-03T04:45:31.181Z,20.20
2023-03-03T04:47:58.276Z,21.60
2023-03-03T04:50:25.103Z,20.55
2023-03-03T04:52:53.524Z,22.38
2023-03-03T04:55:20.259Z,21.02
2023-03-03T04:57:48.118Z,23.05
2023-03-03T05:00:15.166Z,22.58
2023-03-03T05:02:42.100Z,23.45
2023-03-03T05:05:10.615Z,22.73
2023-03-03T05:07:37.313Z,24.63
2023-03-03T05:10:04.227Z,23.90
2023-03-03T05:12:30.904Z,23.33
2023-03-03T05:14:57.567Z,24.30
2023-03-03T05:17:24.209Z,23.60
2023-03-03T05:19:50.954Z,24.35
2023-03-03T05:22:18.195Z,22.70
2023-03-03T05:24:48.914Z,21.35
2023-03-03T05:27:16.659Z,21.80
2023-03-03T05:29:43.441Z,24.25
2023-03-03T05:32:10.208Z,22.77
2023-03-03T05:34:37.790Z,22.40
2023-03-03T05:37:06.625Z,24.20
2023-03-03T05:39:34.634Z,23.60
2023-03-03T05:42:01.840Z,19.52
2023-03-03T05:44:28.671Z,22.42
2023-03-03T05:46:57.606Z,19.73
2023-03-03T05:49:24.954Z,23.33
2023-03-03T05:51:51.821Z,19.58
2023-03-03T05:54:18.516Z,24.23
2023-03-03T05:56:45.312Z,21.13
2023-03-03T05:59:12.009Z,19.70
2023-03-03T06:01:38.809Z,21.00
2023-03-03T06:04:05.511Z,22.77
2023-03-03T06:06:32.353Z,21.88
2023-03-03T06:08:59.006Z,22.55
2023-03-03T06:11:25.673Z,20.60
2023-03-03T06:13:52.319Z,21.45
2023-03-03T06:16:19.401Z,20.02
2023-03-03T06:18:46.227Z,19.90
2023-03-03T06:21:12.885Z,20.20
2023-03-03T06:23:39.559Z,20.52
2023-03-03T06:26:06.299Z,22.90
2023-03-03T06:28:32.969Z,20.85
2023-03-03T06:30:59.694Z,18.42
2023-03-03T06:33:26.398Z,19.70
2023-03-03T06:35:54.636Z,19.17
2023-03-03T06:38:21.795Z,20.42
2023-03-03T06:40:48.490Z,17.95
2023-03-03T06:43:15.179Z,18.65
2023-03-03T06:45:43.165Z,18.30
2023-03-03T06:48:09.818Z,18.95
2023-03-03T06:50:36.715Z,26.60
2023-03-03T06:53:12.621Z,19.35
2023-03-03T06:55:39.829Z,22.25
2023-03-03T06:58:18.400Z,18.20
2023-03-03T07:00:52.636Z,17.67
2023-03-03T07:03:29.395Z,18.70
2023-03-03T07:05:56.247Z,17.40
2023-03-03T07:08:24.997Z,17.83
2023-03-03T07:10:52.688Z,18.73
2023-03-03T07:13:28.291Z,17.92
2023-03-03T07:15:58.919Z,18.55
2023-03-03T07:18:50.927Z,21.02
2023-03-03T07:21:21.986Z,17.83
2023-03-03T07:23:50.572Z,19.27
2023-03-03T07:26:22.837Z,19.13
2023-03-03T07:29:01.216Z,19.65
2023-03-03T07:31:40.852Z,18.38
2023-03-03T07:34:21.735Z,18.35
2023-03-03T07:36:55.680Z,16.58
2023-03-03T07:39:31.121Z,20.00
2023-03-03T07:42:19.285Z,16.92
2023-03-03T07:44:52.299Z,16.20
2023-03-03T07:47:25.924Z,15.90
2023-03-03T07:49:55.894Z,17.27
2023-03-03T07:52:38.247Z,16.90
2023-03-03T07:57:52.802Z,19.02
2023-03-03T08:00:28.557Z,18.83
2023-03-03T08:02:59.886Z,20.95
2023-03-03T08:05:36.148Z,22.17
2023-03-03T08:08:21.758Z,19.60
2023-03-03T08:10:50.126Z,18.98
2023-03-03T08:13:20.248Z,21.08
2023-03-03T08:15:50.472Z,18.52
2023-03-03T08:18:32.954Z,19.30
2023-03-03T08:21:07.435Z,18.05
2023-03-03T08:23:34.138Z,18.52
2023-03-03T08:26:00.760Z,19.85
2023-03-03T08:28:27.499Z,19.92
2023-03-03T08:31:05.533Z,18.40
2023-03-03T08:33:35.794Z,29.23
2023-03-03T08:36:03.032Z,18.42
2023-03-03T08:38:29.709Z,17.77
2023-03-03T08:40:56.394Z,18.17
2023-03-03T08:43:24.595Z,16.42
2023-03-03T08:45:53.634Z,20.58
2023-03-03T08:48:21.232Z,20.27
2023-03-03T08:50:48.107Z,18.42
2023-03-03T08:53:15.318Z,19.67
2023-03-03T08:55:43.052Z,18.05
2023-03-03T08:58:09.826Z,19.42
2023-03-03T09:00:36.913Z,18.50
2023-03-03T09:03:03.787Z,20.20
2023-03-03T09:05:31.419Z,21.35
2023-03-03T09:07:58.208Z,19.73
2023-03-03T09:10:30.653Z,21.83
2023-03-03T09:13:01.370Z,20.20
2023-03-03T09:15:37.282Z,20.52
2023-03-03T09:18:16.579Z,21.05
2023-03-03T09:20:51.438Z,19.85
2023-03-03T09:23:23.950Z,20.35
2023-03-03T09:25:51.507Z,18.67
2023-03-03T09:28:30.279Z,19.20
2023-03-03T09:30:59.924Z,18.13
2023-03-03T09:33:42.949Z,18.95
2023-03-03T09:36:27.924Z,20.30
2023-03-03T09:38:56.773Z,20.58
2023-03-03T09:41:43.206Z,23.98
2023-03-03T09:44:45.734Z,20.98
2023-03-03T09:47:31.411Z,20.50
2023-03-03T09:50:18.577Z,20.10
2023-03-03T09:52:47.974Z,21.05
2023-03-03T09:55:39.325Z,21.13
2023-03-03T09:58:24.833Z,21.25
2023-03-03T10:01:15.800Z,18.38
2023-03-03T10:04:13.434Z,18.38
2023-03-03T10:06:49.585Z,20.60
2023-03-03T10:09:34.856Z,20.58
2023-03-03T10:12:25.072Z,16.23
2023-03-03T10:14:51.802Z,16.60
2023-03-03T10:17:46.521Z,19.10
2023-03-03T10:20:25.532Z,17.88
2023-03-03T10:23:15.190Z,18.70
2023-03-03T10:26:03.848Z,19.48
2023-03-03T10:28:49.017Z,18.92
2023-03-03T10:31:53.406Z,17.15
2023-03-03T10:34:32.168Z,17.27
2023-03-03T10:37:46.330Z,16.08
2023-03-03T10:40:38.552Z,17.48
2023-03-03T10:43:05.224Z,21.08
2023-03-03T10:46:07.054Z,19.00
2023-03-03T10:49:02.362Z,18.90
2023-03-03T10:51:55.327Z,19.90
2023-03-03T10:54:49.751Z,17.52
2023-03-03T10:57:41.544Z,19.35
2023-03-03T11:00:16.548Z,17.75
2023-03-03T11:03:20.963Z,17.70
2023-03-03T11:05:50.805Z,17.48
2023-03-03T11:08:24.414Z,17.85
2023-03-03T11:11:23.153Z,16.15
2023-03-03T11:14:13.456Z,17.08
2023-03-03T11:16:52.682Z,16.80
2023-03-03T11:19:40.272Z,15.80
2023-03-03T11:22:33.548Z,15.60
2023-03-03T11:25:09.131Z,16.05
2023-03-03T11:27:53.889Z,17.05
2023-03-03T11:30:41.891Z,14.10
2023-03-03T11:33:45.096Z,14.23
2023-03-03T11:36:27.997Z,13.38
2023-03-03T11:39:05.421Z,15.65
2023-03-03T11:41:37.661Z,12.88
2023-03-03T11:44:17.202Z,13.18
2023-03-03T11:47:00.547Z,14.82
2023-03-03T11:49:37.498Z,15.48
2023-03-03T11:52:26.204Z,13.10
2023-03-03T11:55:04.921Z,13.45
2023-03-03T11:57:52.855Z,14.95
2023-03-03T12:00:28.880Z,14.85
2023-03-03T12:02:58.379Z,14.93
2023-03-03T12:05:45.756Z,14.45
2023-03-03T12:08:21.409Z,13.90
2023-03-03T12:11:07.654Z,13.07
2023-03-03T12:13:34.890Z,13.38
2023-03-03T12:16:12.840Z,13.60
2023-03-03T12:18:49.083Z,12.70
2023-03-03T12:21:18.571Z,12.07
2023-03-03T12:24:16.910Z,11.98
2023-03-03T12:27:10.532Z,11.55
2023-03-03T12:29:49.532Z,11.75
2023-03-03T12:32:32.553Z,11.43
2023-03-03T12:35:44.006Z,11.43
2023-03-03T12:38:40.600Z,10.88
2023-03-03T12:41:30.101Z,12.75
2023-03-03T12:44:13.249Z,11.25
2023-03-03T12:46:52.633Z,12.05
2023-03-03T12:49:20.134Z,10.43
2023-03-03T12:52:16.156Z,11.52
2023-03-03T12:55:19.848Z,12.07
2023-03-03T12:58:02.823Z,10.38
2023-03-03T13:00:51.905Z,10.70
2023-03-03T13:03:55.765Z,11.35
2023-03-03T13:06:34.881Z,11.38
2023-03-03T13:09:34.441Z,10.57
2023-03-03T13:12:41.864Z,10.25
2023-03-03T13:15:32.789Z,10.98
2023-03-03T13:18:29.719Z,10.40
2023-03-03T13:21:10.796Z,10.68
2023-03-03T13:23:56.412Z,9.75
2023-03-03T13:26:36.254Z,9.50
2023-03-03T13:29:15.915Z,8.63
2023-03-03T13:31:49.531Z,9.82
2023-03-03T13:34:56.793Z,9.10
2023-03-03T13:37:30.789Z,9.55
2023-03-03T13:40:08.542Z,9.95
2023-03-03T13:42:43.828Z,9.75
2023-03-03T13:45:27.613Z,8.63
2023-03-03T13:48:18.342Z,8.88
2023-03-03T13:50:56.484Z,8.70
2023-03-03T13:53:23.171Z,9.15
2023-03-03T13:56:05.478Z,8.73
2023-03-03T14:01:14.683Z,10.05
2023-03-03T14:03:50.696Z,8.63
2023-03-03T14:06:22.656Z,8.88
2023-03-03T14:08:58.372Z,10.05
2023-03-03T14:11:45.928Z,9.50
2023-03-03T14:14:28.647Z,8.55
2023-03-03T14:17:08.447Z,8.80
2023-03-03T14:19:40.037Z,8.60
2023-03-03T14:22:25.346Z,10.32
2023-03-03T14:25:02.594Z,9.65
2023-03-03T14:27:53.198Z,9.50
2023-03-03T14:30:23.014Z,9.82
2023-03-03T14:33:10.158Z,11.77
2023-03-03T14:35:42.214Z,9.60
2023-03-03T14:40:42.782Z,9.43
2023-03-03T14:43:36.592Z,10.18
2023-03-03T14:46:29.167Z,10.30
2023-03-03T14:48:58.897Z,10.75
2023-03-03T14:51:44.289Z,9.65
2023-03-03T14:54:22.315Z,10.73
2023-03-03T14:57:15.197Z,12.57
2023-03-03T14:59:55.441Z,11.23
2023-03-03T15:02:30.526Z,10.60
2023-03-03T15:05:13.295Z,9.75
2023-03-03T15:07:40.411Z,12.73
2023-03-03T15:10:07.898Z,10.68
2023-03-03T15:12:40.866Z,11.18
2023-03-03T15:15:11.631Z,10.25
2023-03-03T15:17:54.192Z,10.60
2023-03-03T15:20:46.053Z,10.93
2023-03-03T15:23:42.000Z,11.57
2023-03-03T15:26:27.147Z,10.90
2023-03-03T15:29:24.860Z,11.27
2023-03-03T15:32:18.303Z,11.23
2023-03-03T15:34:51.806Z,10.93
2023-03-03T15:37:27.210Z,11.63
2023-03-03T15:40:12.453Z,11.10
2023-03-03T15:42:52.785Z,10.70
2023-03-03T15:45:50.053Z,12.68
2023-03-03T15:48:28.808Z,12.30
2023-03-03T15:51:13.341Z,10.73
2023-03-03T15:54:17.698Z,12.20
2023-03-03T15:56:51.324Z,11.50
2023-03-03T15:59:26.980Z,10.85
2023-03-03T16:02:00.352Z,11.30
2023-03-03T16:04:33.111Z,11.27
2023-03-03T16:07:02.734Z,12.38
2023-03-03T16:09:41.442Z,12.35
2023-03-03T16:12:34.218Z,11.18
2023-03-03T16:15:06.947Z,10.65
2023-03-03T16:17:47.908Z,11.82
2023-03-03T16:20:23.048Z,12.05
2023-03-03T16:23:11.839Z,12.32
2023-03-03T16:26:04.531Z,11.30
2023-03-03T16:28:36.739Z,11.88
2023-03-03T16:31:21.545Z,12.57
2023-03-03T16:34:14.527Z,11.35
2023-03-03T16:36:50.151Z,10.70
2023-03-03T16:39:39.823Z,11.50
2023-03-03T16:42:26.428Z,11.05
2023-03-03T16:44:55.929Z,11.60
2023-03-03T16:47:34.931Z,11.60
2023-03-03T16:50:29.593Z,11.13
2023-03-03T16:53:42.630Z,10.50
2023-03-03T16:56:20.024Z,12.00
2023-03-03T16:59:18.274Z,11.00
2023-03-03T17:02:03.969Z,11.73
2023-03-03T17:04:59.117Z,11.27
2023-03-03T17:07:36.010Z,12.18
2023-03-03T17:10:26.396Z,11.35
2023-03-03T17:13:07.099Z,12.05
2023-03-03T17:15:47.407Z,10.55
2023-03-03T17:18:24.881Z,11.68
2023-03-03T17:21:02.268Z,11.68
2023-03-03T17:23:54.656Z,11.60
2023-03-03T17:26:52.670Z,12.35
2023-03-03T17:29:31.020Z,12.00
2023-03-03T17:32:31.849Z,13.68
2023-03-03T17:35:35.933Z,12.27
2023-03-03T17:38:27.572Z,12.40
2023-03-03T17:41:23.964Z,11.70
2023-03-03T17:44:12.198Z,12.38
2023-03-03T17:46:51.512Z,13.43
2023-03-03T17:49:45.911Z,15.18
2023-03-03T17:52:33.960Z,14.68
2023-03-03T17:55:21.830Z,12.82
2023-03-03T17:58:05.849Z,12.70
2023-03-03T18:00:38.420Z,13.90
2023-03-03T18:03:15.879Z,13.20
2023-03-03T18:06:06.336Z,13.57
2023-03-03T18:09:14.070Z,12.93
2023-03-03T18:12:04.825Z,13.23
2023-03-03T18:14:55.153Z,13.02
2023-03-03T18:17:35.840Z,14.50
2023-03-03T18:20:40.191Z,13.95
2023-03-03T18:23:43.641Z,14.57
2023-03-03T18:26:29.680Z,14.82
2023-03-03T18:29:16.592Z,15.65
2023-03-03T18:31:52.187Z,14.75
2023-03-03T18:34:18.788Z,14.65
2023-03-03T18:36:55.725Z,16.13
2023-03-03T18:39:46.385Z,16.38
2023-03-03T18:42:16.093Z,21.02
2023-03-03T18:44:44.365Z,22.98
2023-03-03T18:47:11.901Z,38.40
2023-03-03T18:50:01.485Z,17.02
2023-03-03T18:52:33.715Z,17.92
2023-03-03T18:55:09.752Z,15.90
2023-03-03T18:57:38.268Z,19.02
2023-03-03T19:00:28.555Z,19.42
2023-03-03T19:02:58.826Z,18.42
2023-03-03T19:05:33.928Z,18.50
2023-03-03T19:08:23.436Z,19.90
2023-03-03T19:10:58.010Z,18.67
2023-03-03T19:13:41.212Z,20.05
2023-03-03T19:16:30.463Z,18.92
2023-03-03T19:19:04.441Z,17.58
2023-03-03T19:21:36.435Z,16.33
2023-03-03T19:24:05.819Z,18.58
2023-03-03T19:26:43.190Z,16.35
2023-03-03T19:29:18.782Z,17.10
2023-03-03T19:32:26.275Z,18.27
2023-03-03T19:35:03.371Z,19.80
2023-03-03T19:37:54.641Z,18.23
2023-03-03T19:40:43.208Z,17.83
2023-03-03T19:43:37.169Z,19.45
2023-03-03T19:46:30.400Z,16.38
2023-03-03T19:49:09.113Z,18.35
2023-03-03T19:51:45.157Z,18.75
2023-03-03T19:54:44.811Z,17.42
2023-03-03T19:57:26.308Z,18.73
2023-03-03T20:00:05.586Z,18.92
2023-03-03T20:03:23.818Z,17.83
2023-03-03T20:06:29.952Z,17.58
2023-03-03T20:09:22.752Z,19.25
2023-03-03T20:12:08.336Z,17.52
2023-03-03T20:14:46.065Z,18.58
2023-03-03T20:17:21.354Z,16.45
2023-03-03T20:20:00.357Z,16.25
2023-03-03T20:22:56.644Z,17.13
2023-03-03T20:25:55.342Z,15.00
2023-03-03T20:28:48.335Z,13.15
2023-03-03T20:31:21.016Z,12.48
2023-03-03T20:34:00.954Z,13.30
2023-03-03T20:36:55.123Z,10.88
2023-03-03T20:39:43.312Z,10.30
2023-03-03T20:42:33.096Z,10.38
2023-03-03T20:45:10.774Z,9.88
2023-03-03T20:47:54.540Z,8.05
2023-03-03T20:50:46.093Z,9.52
2023-03-03T20:53:36.259Z,8.67
2023-03-03T20:56:25.066Z,8.98
2023-03-03T20:59:17.408Z,8.70
2023-03-03T21:02:01.573Z,9.05
2023-03-03T21:04:33.644Z,8.73
2023-03-03T21:09:38.797Z,6.85
2023-03-03T21:12:31.389Z,8.38
2023-03-03T21:15:04.012Z,3.85
2023-03-03T21:17:31.669Z,2.95
2023-03-03T21:20:18.345Z,2.35
2023-03-03T21:22:45.539Z,2.58
2023-03-03T21:25:33.015Z,3.67
2023-03-03T21:28:17.895Z,2.45
2023-03-03T21:31:04.902Z,2.47
2023-03-03T21:33:57.024Z,2.10
2023-03-03T21:36:23.800Z,2.13
2023-03-03T21:38:52.953Z,2.40
2023-03-03T21:41:20.953Z,2.92
2023-03-03T21:43:50.176Z,2.85
2023-03-03T21:46:23.117Z,2.90
2023-03-03T21:48:51.444Z,4.45
2023-03-03T21:51:20.259Z,3.67
2023-03-03T21:53:47.662Z,2.80
2023-03-03T21:56:14.478Z,2.80
2023-03-03T21:58:41.949Z,3.35
2023-03-03T22:01:09.251Z,2.95
2023-03-03T22:03:36.993Z,3.58
2023-03-03T22:06:03.912Z,2.70
2023-03-03T22:08:30.837Z,2.78
2023-03-03T22:10:57.517Z,3.25
2023-03-03T22:13:26.137Z,2.00
2023-03-03T22:15:53.733Z,2.53
2023-03-03T22:18:21.575Z,2.60
2023-03-03T22:20:48.925Z,2.38
2023-03-03T22:23:16.293Z,2.20
2023-03-03T22:25:43.092Z,3.22
2023-03-03T22:28:09.769Z,3.50
2023-03-03T22:30:36.778Z,2.53
2023-03-03T22:33:03.984Z,2.38
2023-03-03T22:35:31.049Z,2.72
2023-03-03T22:37:57.995Z,2.38
2023-03-03T22:40:24.696Z,1.92
2023-03-03T22:42:51.745Z,2.83
2023-03-03T22:45:18.656Z,2.70
2023-03-03T22:47:45.539Z,2.03
2023-03-03T22:50:12.989Z,1.80
2023-03-03T22:52:39.754Z,3.03
2023-03-03T22:55:07.134Z,2.20
2023-03-03T22:57:34.358Z,1.77
2023-03-03T23:00:02.504Z,3.05
2023-03-03T23:02:29.852Z,2.33
2023-03-03T23:05:01.657Z,2.45
2023-03-03T23:07:29.249Z,2.35
2023-03-03T23:09:56.282Z,1.77
2023-03-03T23:12:23.770Z,1.80
2023-03-03T23:14:50.489Z,2.55
2023-03-03T23:17:17.433Z,2.35
2023-03-03T23:19:46.265Z,3.40
2023-03-03T23:22:13.656Z,2.13
2023-03-03T23:24:41.292Z,2.00
2023-03-03T23:27:11.722Z,2.20
2023-03-03T23:29:39.021Z,2.55
2023-03-03T23:32:06.101Z,3.13
2023-03-03T23:34:32.910Z,2.80
2023-03-03T23:36:59.585Z,2.15
2023-03-03T23:39:26.262Z,1.85
2023-03-03T23:41:52.973Z,1.67
2023-03-03T23:44:19.708Z,2.28
2023-03-03T23:46:46.436Z,2.85
2023-03-03T23:49:13.207Z,2.30
2023-03-03T23:51:39.884Z,2.28
2023-03-03T23:54:06.664Z,2.38
2023-03-03T23:56:33.427Z,2.60
2023-03-03T23:59:00.158Z,2.00
